createdAt,value
2022-10-01T10:21:54.458Z,11.67
2022-10-01T10:24:34.870Z,9.63
2022-10-01T10:27:06.730Z,9.52
2022-10-01T10:29:37.870Z,9.52
2022-10-01T10:32:25.559Z,14.52
2022-10-01T10:35:03.174Z,16.02
2022-10-01T10:37:36.131Z,13.55
2022-10-01T10:40:09.143Z,10.60
2022-10-01T10:42:40.063Z,6.72
2022-10-01T10:45:17.660Z,6.00
2022-10-01T10:47:49.532Z,10.98
2022-10-01T10:50:32.391Z,6.47
2022-10-01T10:53:05.399Z,10.85
2022-10-01T10:55:35.301Z,8.82
2022-10-01T10:58:16.141Z,7.15
2022-10-01T11:00:51.262Z,6.22
2022-10-01T11:03:25.987Z,3.83
2022-10-01T11:05:57.481Z,4.15
2022-10-01T11:08:29.013Z,9.98
2022-10-01T11:11:14.745Z,7.80
2022-10-01T11:13:59.510Z,3.22
2022-10-01T11:16:32.738Z,4.45
2022-10-01T11:19:12.457Z,2.72
2022-10-01T11:22:00.674Z,7.55
2022-10-01T11:24:39.460Z,2.90
2022-10-01T11:27:15.337Z,2.75
2022-10-01T11:30:08.502Z,4.97
2022-10-01T11:35:45.324Z,4.55
2022-10-01T11:38:24.899Z,6.97
2022-10-01T11:41:14.569Z,6.13
2022-10-01T11:44:08.788Z,4.22
2022-10-01T11:47:00.185Z,7.22
2022-10-01T11:49:56.358Z,8.07
2022-10-01T11:52:46.172Z,5.18
2022-10-01T11:56:00.603Z,5.50
2022-10-01T11:58:55.214Z,3.58
2022-10-01T12:01:25.294Z,5.45
2022-10-01T12:03:55.363Z,3.05
2022-10-01T12:06:30.493Z,9.10
2022-10-01T12:09:22.853Z,21.67
2022-10-01T12:12:02.514Z,6.07
2022-10-01T12:14:46.889Z,10.18
2022-10-01T12:17:39.766Z,9.05
2022-10-01T12:20:23.552Z,11.07
2022-10-01T12:22:53.486Z,6.85
2022-10-01T12:25:24.754Z,8.18
2022-10-01T12:28:13.543Z,7.05
2022-10-01T12:31:27.864Z,7.07
2022-10-01T12:34:19.401Z,5.38
2022-10-01T12:37:11.450Z,4.72
2022-10-01T12:39:56.797Z,6.28
2022-10-01T12:42:49.545Z,6.00
2022-10-01T12:45:44.978Z,8.20
2022-10-01T12:48:18.213Z,4.43
2022-10-01T12:51:11.976Z,5.55
2022-10-01T12:54:01.616Z,3.13
2022-10-01T12:56:39.077Z,8.02
2022-10-01T12:59:27.472Z,9.55
2022-10-01T13:02:12.642Z,4.72
2022-10-01T13:05:04.561Z,2.65
2022-10-01T13:08:05.438Z,2.45
2022-10-01T13:10:52.999Z,3.28
2022-10-01T13:13:34.208Z,3.67
2022-10-01T13:16:19.586Z,2.55
2022-10-01T13:18:55.651Z,1.75
2022-10-01T13:21:41.118Z,3.03
2022-10-01T13:24:38.421Z,7.60
2022-10-01T13:27:08.267Z,2.28
2022-10-01T13:30:01.112Z,3.92
2022-10-01T13:32:38.502Z,4.68
2022-10-01T13:35:35.200Z,3.25
2022-10-01T13:38:31.390Z,4.00
2022-10-01T13:41:17.795Z,2.92
2022-10-01T13:43:59.554Z,6.15
2022-10-01T13:46:32.436Z,1.98
2022-10-01T13:49:09.188Z,3.47
2022-10-01T13:51:39.319Z,2.35
2022-10-01T13:54:15.845Z,1.80
2022-10-01T13:56:48.492Z,4.82
2022-10-01T13:59:33.964Z,6.30
2022-10-01T14:02:04.282Z,5.30
2022-10-01T14:04:41.681Z,3.40
2022-10-01T14:07:29.564Z,4.45
2022-10-01T14:10:00.269Z,5.18
2022-10-01T14:12:55.242Z,6.32
2022-10-01T14:15:46.101Z,3.50
2022-10-01T14:18:22.866Z,3.10
2022-10-01T14:21:22.641Z,2.30
2022-10-01T14:24:16.951Z,1.60
2022-10-01T14:27:24.347Z,4.28
2022-10-01T14:30:15.828Z,2.70
2022-10-01T14:33:13.441Z,1.90
2022-10-01T14:35:51.390Z,1.83
2022-10-01T14:38:22.333Z,3.20
2022-10-01T14:40:52.525Z,1.98
2022-10-01T14:43:30.598Z,1.88
2022-10-01T14:46:05.319Z,3.03
2022-10-01T14:48:36.553Z,2.30
2022-10-01T14:51:07.886Z,2.35
2022-10-01T14:53:38.858Z,3.65
2022-10-01T14:56:11.556Z,2.65
2022-10-01T14:58:45.855Z,2.00
2022-10-01T15:01:23.208Z,2.42
2022-10-01T15:03:53.968Z,2.00
2022-10-01T15:06:26.126Z,0.90
2022-10-01T15:08:56.552Z,1.38
2022-10-01T15:11:30.777Z,1.73
2022-10-01T15:14:08.275Z,1.80
2022-10-01T15:16:38.533Z,5.10
2022-10-01T15:19:10.640Z,2.90
2022-10-01T15:21:51.682Z,2.17
2022-10-01T15:24:26.979Z,1.70
2022-10-01T15:26:58.237Z,3.08
2022-10-01T15:29:28.348Z,3.03
2022-10-01T15:31:58.647Z,1.40
2022-10-01T15:34:28.711Z,2.22
2022-10-01T15:36:58.662Z,1.98
2022-10-01T15:39:41.271Z,2.38
2022-10-01T15:42:26.845Z,2.13
2022-10-01T15:45:14.235Z,0.70
2022-10-01T15:47:52.903Z,1.10
2022-10-01T15:50:47.109Z,1.35
2022-10-01T15:53:19.555Z,1.25
2022-10-01T15:55:50.808Z,2.47
2022-10-01T15:58:31.434Z,1.58
2022-10-01T16:01:18.786Z,1.10
2022-10-01T16:03:58.932Z,1.08
2022-10-01T16:06:54.936Z,1.00
2022-10-01T16:09:32.623Z,1.20
2022-10-01T16:12:25.161Z,2.70
2022-10-01T16:15:02.427Z,0.70
2022-10-01T16:17:38.533Z,3.15
2022-10-01T16:20:17.407Z,1.25
2022-10-01T16:22:47.460Z,1.35
2022-10-01T16:25:24.919Z,1.05
2022-10-01T16:28:03.426Z,1.35
2022-10-01T16:30:34.752Z,1.20
2022-10-01T16:33:07.952Z,1.00
2022-10-01T16:35:39.812Z,2.10
2022-10-01T16:38:10.803Z,0.90
2022-10-01T16:40:44.820Z,1.08
2022-10-01T16:43:26.508Z,0.90
2022-10-01T16:45:56.531Z,1.33
2022-10-01T16:48:26.625Z,1.05
2022-10-01T16:51:00.139Z,1.08
2022-10-01T16:53:30.766Z,0.95
2022-10-01T16:56:00.654Z,1.42
2022-10-01T16:58:30.589Z,1.92
2022-10-01T17:01:00.624Z,1.17
2022-10-01T17:03:30.580Z,1.08
2022-10-01T17:06:00.606Z,0.90
2022-10-01T17:08:30.726Z,1.55
2022-10-01T17:11:02.443Z,1.15
2022-10-01T17:13:35.267Z,0.80
2022-10-01T17:18:36.979Z,2.38
2022-10-01T17:21:07.201Z,0.80
2022-10-01T17:23:37.943Z,0.80
2022-10-01T17:26:11.210Z,0.63
2022-10-01T17:28:41.226Z,0.93
2022-10-01T17:31:14.391Z,0.90
2022-10-01T17:33:47.580Z,1.17
2022-10-01T17:36:17.414Z,0.65
2022-10-01T17:38:47.607Z,0.73
2022-10-01T17:41:17.596Z,0.90
2022-10-01T17:43:47.490Z,0.65
2022-10-01T17:46:17.515Z,0.73
2022-10-01T17:48:50.250Z,1.10
2022-10-01T17:51:21.011Z,0.50
2022-10-01T17:53:51.026Z,0.90
2022-10-01T17:56:21.066Z,0.57
2022-10-01T17:58:50.990Z,1.05
2022-10-01T18:01:22.265Z,1.05
2022-10-01T18:04:01.420Z,0.90
2022-10-01T18:06:31.640Z,2.67
2022-10-01T18:09:01.545Z,0.82
2022-10-01T18:11:31.734Z,1.48
2022-10-01T18:14:01.774Z,0.80
2022-10-01T18:16:33.459Z,0.70
2022-10-01T18:21:54.224Z,0.60
2022-10-01T18:24:24.183Z,0.70
2022-10-01T18:26:54.252Z,0.70
2022-10-01T18:29:25.892Z,0.60
2022-10-01T18:32:03.482Z,0.68
2022-10-01T18:35:01.850Z,0.75
2022-10-01T18:37:40.071Z,0.40
2022-10-01T18:40:18.912Z,0.35
2022-10-01T18:43:19.862Z,0.60
2022-10-01T18:46:08.742Z,0.70
2022-10-01T18:48:43.419Z,0.55
2022-10-01T18:51:25.849Z,3.30
2022-10-01T18:54:07.840Z,0.60
2022-10-01T18:56:38.909Z,0.90
2022-10-01T18:59:22.126Z,0.70
2022-10-01T19:02:09.870Z,0.52
2022-10-01T19:04:54.489Z,0.40
2022-10-01T19:07:35.607Z,0.85
2022-10-01T19:11:01.219Z,0.55
2022-10-01T19:13:31.123Z,0.70
2022-10-01T19:16:37.925Z,0.60
2022-10-01T19:19:12.533Z,0.80
2022-10-01T19:21:50.406Z,0.65
2022-10-01T19:24:35.107Z,0.82
2022-10-01T19:27:24.994Z,0.88
2022-10-01T19:30:05.695Z,0.50
2022-10-01T19:32:43.732Z,0.95
2022-10-01T19:35:24.644Z,0.40
2022-10-01T19:37:59.494Z,0.70
2022-10-01T19:40:55.251Z,0.45
2022-10-01T19:43:43.450Z,0.30
2022-10-01T19:46:17.008Z,1.08
2022-10-01T19:49:07.590Z,0.50
2022-10-01T19:51:51.218Z,0.57
2022-10-01T19:54:22.482Z,0.45
2022-10-01T19:56:58.232Z,0.30
2022-10-01T19:59:28.756Z,0.52
2022-10-01T20:02:15.772Z,0.60
2022-10-01T20:04:52.981Z,0.68
2022-10-01T20:07:38.355Z,0.47
2022-10-01T20:10:23.125Z,0.20
2022-10-01T20:13:02.187Z,0.25
2022-10-01T20:15:38.877Z,2.38
2022-10-01T20:18:14.532Z,0.52
2022-10-01T20:21:08.944Z,0.40
2022-10-01T20:23:47.956Z,0.40
2022-10-01T20:26:45.520Z,0.40
2022-10-01T20:29:35.894Z,0.30
2022-10-01T20:32:07.781Z,0.30
2022-10-01T20:34:37.664Z,0.40
2022-10-01T20:37:36.003Z,0.40
2022-10-01T20:40:07.993Z,0.60
2022-10-01T20:42:40.347Z,1.10
2022-10-01T20:45:35.158Z,1.55
2022-10-01T20:48:13.864Z,0.20
2022-10-01T20:50:59.585Z,0.15
2022-10-01T20:53:46.735Z,0.40
2022-10-01T20:56:25.211Z,0.43
2022-10-01T20:58:58.535Z,0.73
2022-10-01T21:01:31.631Z,1.20
2022-10-01T21:04:07.853Z,0.30
2022-10-01T21:06:38.293Z,1.85
2022-10-01T21:09:46.682Z,0.40
2022-10-01T21:12:26.068Z,0.38
2022-10-01T21:14:57.143Z,0.47
2022-10-01T21:17:36.458Z,0.82
2022-10-01T21:20:11.756Z,0.60
2022-10-01T21:23:06.226Z,0.35
2022-10-01T21:25:48.076Z,0.93
2022-10-01T21:28:32.892Z,0.35
2022-10-01T21:31:44.427Z,0.30
2022-10-01T21:34:18.768Z,0.98
2022-10-01T21:36:58.102Z,0.40
2022-10-01T21:39:39.994Z,0.35
2022-10-01T21:42:25.151Z,0.30
2022-10-01T21:45:03.948Z,0.20
2022-10-01T21:47:53.208Z,0.50
2022-10-01T21:50:54.109Z,0.50
2022-10-01T21:53:46.900Z,0.50
2022-10-01T21:56:36.994Z,0.20
2022-10-01T21:59:26.334Z,0.38
2022-10-01T22:02:29.501Z,0.40
2022-10-01T22:05:24.403Z,0.35
2022-10-01T22:07:59.836Z,0.43
2022-10-01T22:10:49.833Z,0.20
2022-10-01T22:13:25.702Z,0.10
2022-10-01T22:15:58.630Z,0.40
2022-10-01T22:18:39.469Z,0.47
2022-10-01T22:21:19.103Z,0.22
2022-10-01T22:23:53.180Z,0.30
2022-10-01T22:26:24.254Z,0.50
2022-10-01T22:28:55.106Z,2.05
2022-10-01T22:31:28.367Z,0.20
2022-10-01T22:34:07.126Z,1.65
2022-10-01T22:36:46.072Z,0.40
2022-10-01T22:39:25.426Z,0.50
2022-10-01T22:42:10.759Z,0.30
2022-10-01T22:44:40.617Z,0.25
2022-10-01T22:47:33.337Z,0.35
2022-10-01T22:50:09.407Z,0.50
2022-10-01T22:53:01.879Z,0.30
2022-10-01T22:55:39.779Z,0.40
2022-10-01T22:58:22.908Z,0.30
2022-10-01T23:01:17.615Z,0.57
2022-10-01T23:04:15.213Z,0.47
2022-10-01T23:07:00.192Z,2.20
2022-10-01T23:09:53.693Z,0.32
2022-10-01T23:15:49.997Z,0.25
2022-10-01T23:18:36.157Z,0.52
2022-10-01T23:21:09.578Z,0.40
2022-10-01T23:23:39.779Z,0.65
2022-10-01T23:26:25.630Z,0.40
2022-10-01T23:29:04.241Z,0.52
2022-10-01T23:31:52.016Z,1.40
2022-10-01T23:34:30.905Z,0.55
2022-10-01T23:37:09.473Z,0.68
2022-10-01T23:39:39.476Z,0.40
2022-10-01T23:42:38.009Z,0.77
2022-10-01T23:45:35.651Z,2.25
2022-10-01T23:48:15.351Z,0.55
2022-10-01T23:51:03.912Z,2.88
2022-10-01T23:53:46.001Z,0.30
2022-10-01T23:56:50.047Z,0.30
2022-10-01T23:59:39.257Z,0.73
